createdAt,value
2019-04-23T00:02:21.494Z,67.80
2019-04-23T00:05:48.168Z,68.00
2019-04-23T00:09:27.670Z,68.00
2019-04-23T00:12:44.042Z,68.30
2019-04-23T00:19:32.938Z,68.20
2019-04-23T00:29:56.100Z,68.50
2019-04-23T00:33:21.745Z,68.60
2019-04-23T00:40:05.708Z,68.50
2019-04-23T00:43:48.617Z,68.80
2019-04-23T00:46:55.913Z,69.10
2019-04-23T00:50:32.559Z,69.60
2019-04-23T00:53:48.088Z,69.50
2019-04-23T00:57:23.169Z,70.70
2019-04-23T01:00:46.053Z,69.80
2019-04-23T01:04:10.305Z,69.80
2019-04-23T01:07:34.892Z,70.00
2019-04-23T01:11:08.242Z,70.70
2019-04-23T01:14:32.474Z,70.70
2019-04-23T01:21:13.730Z,70.70
2019-04-23T01:24:40.806Z,71.40
2019-04-23T01:28:40.008Z,71.70
2019-04-23T01:31:57.415Z,71.50
2019-04-23T01:35:21.145Z,71.60
2019-04-23T01:38:56.018Z,71.70
2019-04-23T01:42:26.662Z,71.90
2019-04-23T01:45:30.758Z,72.10
2019-04-23T01:49:10.629Z,72.40
2019-04-23T01:56:02.552Z,72.90
2019-04-23T01:59:38.606Z,72.80
2019-04-23T02:02:49.827Z,73.10
2019-04-23T02:06:16.583Z,73.80
2019-04-23T02:09:42.297Z,73.70
2019-04-23T02:13:10.918Z,74.30
2019-04-23T02:16:34.041Z,74.90
2019-04-23T02:20:01.663Z,75.30
2019-04-23T02:23:28.043Z,75.10
2019-04-23T02:27:07.356Z,75.50
2019-04-23T02:30:40.603Z,75.60
2019-04-23T02:34:00.514Z,76.40
2019-04-23T02:37:16.010Z,76.10
2019-04-23T02:40:59.747Z,76.20
2019-04-23T02:47:32.628Z,77.20
2019-04-23T02:50:57.428Z,76.60
2019-04-23T02:54:44.614Z,76.90
2019-04-23T03:01:27.991Z,76.90
2019-04-23T03:04:43.346Z,77.80
2019-04-23T03:07:59.974Z,77.60
2019-04-23T03:11:32.592Z,77.20
2019-04-23T03:14:59.265Z,77.80
2019-04-23T03:18:39.628Z,77.90
2019-04-23T03:28:56.884Z,78.50
2019-04-23T03:38:55.544Z,78.50
2019-04-23T03:42:47.623Z,78.20
2019-04-23T03:49:21.339Z,79.50
2019-04-23T03:52:46.524Z,79.70
2019-04-23T04:09:51.717Z,79.40
2019-04-23T04:23:43.089Z,79.30
2019-04-23T04:27:05.687Z,79.00
2019-04-23T04:37:48.534Z,79.00
2019-04-23T04:40:55.256Z,78.80
2019-04-23T04:51:18.863Z,78.20
2019-04-23T04:54:22.005Z,77.90
2019-04-23T04:57:58.655Z,78.70
2019-04-23T05:01:25.376Z,78.90
2019-04-23T05:11:45.386Z,78.90
2019-04-23T05:18:38.138Z,78.00
2019-04-23T05:22:06.624Z,77.60
2019-04-23T05:25:25.441Z,76.30
2019-04-23T05:29:03.806Z,77.20
2019-04-23T05:32:12.071Z,77.60
2019-04-23T05:39:15.813Z,77.90
2019-04-23T05:42:32.037Z,76.70
2019-04-23T05:45:59.664Z,76.20
2019-04-23T05:49:26.176Z,76.90
2019-04-23T05:52:54.420Z,77.50
2019-04-23T05:56:15.241Z,77.50
2019-04-23T05:59:34.234Z,78.30
2019-04-23T06:03:14.710Z,78.90
2019-04-23T06:09:59.293Z,78.90
2019-04-23T06:13:26.963Z,73.40
2019-04-23T06:20:15.118Z,70.80
2019-04-23T06:23:46.456Z,73.60
2019-04-23T06:27:06.685Z,77.10
2019-04-23T06:30:43.662Z,78.60
2019-04-23T06:34:10.830Z,79.30
2019-04-23T06:37:36.192Z,79.20
2019-04-23T06:40:48.803Z,80.90
2019-04-23T06:44:24.055Z,79.00
2019-04-23T06:47:56.460Z,77.30
2019-04-23T06:51:22.053Z,78.70
2019-04-23T06:58:12.313Z,78.20
2019-04-23T07:01:36.310Z,78.60
2019-04-23T07:08:32.521Z,80.90
2019-04-23T07:11:44.766Z,82.70
2019-04-23T07:15:30.876Z,81.60
2019-04-23T07:18:36.138Z,78.90
2019-04-23T07:25:48.538Z,62.50
2019-04-23T07:29:05.056Z,60.70
2019-04-23T07:32:15.420Z,67.90
2019-04-23T07:35:57.767Z,75.70
2019-04-23T07:42:42.073Z,83.20
2019-04-23T07:46:38.307Z,84.20
2019-04-23T07:50:00.999Z,85.30
2019-04-23T07:53:19.215Z,81.00
2019-04-23T07:56:42.217Z,79.00
2019-04-23T08:00:09.287Z,67.30
2019-04-23T08:03:41.451Z,66.20
2019-04-23T08:07:00.457Z,73.60
2019-04-23T08:10:28.035Z,77.50
2019-04-23T08:13:59.082Z,79.50
2019-04-23T08:17:16.144Z,78.80
2019-04-23T08:20:57.212Z,79.70
2019-04-23T08:24:10.662Z,79.30
2019-04-23T08:27:42.044Z,81.00
2019-04-23T08:31:08.313Z,80.20
2019-04-23T08:38:11.993Z,77.80
2019-04-23T08:45:06.969Z,74.10
2019-04-23T08:48:34.502Z,74.40
2019-04-23T08:51:51.659Z,69.10
2019-04-23T08:55:11.404Z,67.20
2019-04-23T08:58:49.328Z,69.00
2019-04-23T09:05:44.785Z,69.40
2019-04-23T09:08:49.636Z,73.10
2019-04-23T09:12:31.613Z,76.70
2019-04-23T09:19:16.100Z,77.30
2019-04-23T09:25:58.794Z,78.70
2019-04-23T09:29:40.743Z,78.00
2019-04-23T09:33:03.505Z,77.70
2019-04-23T09:36:34.633Z,77.70
2019-04-23T09:39:58.900Z,77.40
2019-04-23T09:43:22.719Z,75.60
2019-04-23T09:47:00.430Z,76.50
2019-04-23T09:50:20.455Z,76.10
2019-04-23T09:54:04.410Z,74.90
2019-04-23T09:57:14.031Z,72.90
2019-04-23T10:00:40.742Z,69.10
2019-04-23T10:03:53.394Z,65.60
2019-04-23T10:07:21.139Z,66.20
2019-04-23T10:10:32.474Z,58.80
2019-04-23T10:13:58.568Z,59.70
2019-04-23T10:17:24.329Z,55.80
2019-04-23T10:20:49.005Z,55.70
2019-04-23T10:24:14.937Z,52.80
2019-04-23T10:27:41.342Z,55.80
2019-04-23T10:31:07.133Z,53.70
2019-04-23T10:34:43.017Z,57.50
2019-04-23T10:38:04.180Z,60.20
2019-04-23T10:41:25.727Z,62.70
2019-04-23T10:45:10.953Z,61.10
2019-04-23T10:49:00.753Z,63.50
2019-04-23T10:59:37.252Z,57.10
2019-04-23T11:03:01.516Z,54.10
2019-04-23T11:09:56.970Z,53.90
2019-04-23T11:13:25.585Z,50.70
2019-04-23T11:16:59.772Z,54.50
2019-04-23T11:23:44.562Z,57.10
2019-04-23T11:27:07.542Z,57.40
2019-04-23T11:30:31.986Z,56.30
2019-04-23T11:37:35.604Z,56.10
2019-04-23T11:40:37.144Z,53.70
2019-04-23T11:44:18.903Z,52.50
2019-04-23T11:54:32.250Z,49.30
2019-04-23T11:58:08.697Z,48.40
2019-04-23T12:08:28.239Z,49.70
2019-04-23T12:11:52.847Z,53.20
2019-04-23T12:28:57.731Z,49.00
2019-04-23T12:35:51.919Z,49.50
2019-04-23T12:39:18.796Z,50.20
2019-04-23T12:42:54.018Z,51.50
2019-04-23T12:46:03.262Z,52.30
2019-04-23T12:49:52.826Z,53.10
2019-04-23T12:53:21.876Z,53.00
2019-04-23T12:56:48.829Z,52.40
2019-04-23T12:59:50.370Z,51.20
2019-04-23T13:06:45.337Z,50.30
2019-04-23T13:10:09.946Z,50.50
2019-04-23T13:13:37.494Z,50.90
2019-04-23T13:20:27.322Z,50.00
2019-04-23T13:23:45.959Z,49.80
2019-04-23T13:27:30.113Z,51.00
2019-04-23T13:34:23.123Z,50.40
2019-04-23T13:37:57.330Z,50.40
2019-04-23T13:41:19.163Z,51.00
2019-04-23T13:44:42.686Z,52.40
2019-04-23T13:51:34.206Z,50.70
2019-04-23T13:55:04.580Z,50.70
2019-04-23T13:58:41.754Z,51.10
2019-04-23T14:01:40.073Z,51.10
2019-04-23T14:05:13.063Z,50.90
2019-04-23T14:08:47.478Z,51.60
2019-04-23T14:12:08.497Z,51.80
2019-04-23T14:15:41.353Z,51.20
2019-04-23T14:22:52.639Z,51.40
2019-04-23T14:29:22.441Z,50.20
2019-04-23T14:32:46.933Z,49.70
2019-04-23T14:36:10.860Z,50.00
2019-04-23T14:39:43.697Z,49.10
2019-04-23T14:50:30.818Z,48.40
2019-04-23T14:53:24.617Z,47.80
2019-04-23T14:56:51.536Z,48.10
2019-04-23T15:00:18.660Z,48.20
2019-04-23T15:03:46.621Z,48.10
2019-04-23T15:10:40.920Z,47.30
2019-04-23T15:17:27.080Z,47.30
2019-04-23T15:21:08.655Z,46.90
2019-04-23T15:24:23.208Z,46.80
2019-04-23T15:34:31.213Z,46.10
2019-04-23T15:38:18.840Z,46.00
2019-04-23T15:41:32.055Z,45.40
2019-04-23T15:44:55.783Z,45.50
2019-04-23T15:48:17.625Z,45.40
2019-04-23T15:55:05.813Z,46.90
2019-04-23T15:58:57.934Z,46.30
2019-04-23T16:01:43.838Z,46.40
2019-04-23T16:05:10.067Z,47.10
2019-04-23T16:12:27.776Z,47.20
2019-04-23T16:15:58.002Z,47.80
2019-04-23T16:19:54.136Z,47.70
2019-04-23T16:22:52.832Z,47.80
2019-04-23T16:26:29.830Z,47.70
2019-04-23T16:30:06.276Z,48.00
2019-04-23T16:33:11.089Z,48.10
2019-04-23T16:40:27.926Z,48.70
2019-04-23T16:43:35.401Z,48.50
2019-04-23T16:47:04.648Z,48.30
2019-04-23T16:50:31.105Z,48.10
2019-04-23T16:53:54.188Z,48.20
2019-04-23T17:04:19.605Z,48.90
2019-04-23T17:07:36.810Z,49.00
2019-04-23T17:11:13.024Z,49.20
2019-04-23T17:14:23.423Z,49.10
2019-04-23T17:17:56.121Z,49.40
2019-04-23T17:21:18.149Z,49.90
2019-04-23T17:24:51.741Z,50.40
2019-04-23T17:28:17.946Z,50.50
2019-04-23T17:35:09.565Z,50.90
2019-04-23T17:38:45.577Z,51.20
2019-04-23T17:42:14.011Z,50.90
2019-04-23T17:45:32.498Z,51.40
2019-04-23T17:48:55.190Z,51.70
2019-04-23T17:55:57.215Z,51.80
2019-04-23T17:59:23.260Z,52.20
2019-04-23T18:02:55.441Z,52.40
2019-04-23T18:09:27.564Z,52.50
2019-04-23T18:16:27.649Z,52.60
2019-04-23T18:19:53.188Z,52.60
2019-04-23T18:23:09.707Z,52.40
2019-04-23T18:34:05.391Z,51.10
2019-04-23T18:37:16.944Z,51.10
2019-04-23T18:40:55.206Z,51.20
2019-04-23T18:44:05.820Z,50.60
2019-04-23T18:47:32.341Z,50.80
2019-04-23T18:51:05.100Z,50.80
2019-04-23T18:54:24.314Z,51.20
2019-04-23T18:57:45.802Z,51.20
2019-04-23T19:01:11.291Z,51.20
2019-04-23T19:08:32.163Z,50.90
2019-04-23T19:12:05.129Z,51.60
2019-04-23T19:15:30.109Z,51.50
2019-04-23T19:18:54.606Z,51.70
2019-04-23T19:22:20.737Z,52.00
2019-04-23T19:25:42.124Z,52.10
2019-04-23T19:32:39.002Z,52.70
2019-04-23T19:39:24.602Z,53.10
2019-04-23T19:42:50.262Z,53.50
2019-04-23T19:46:48.934Z,53.70
2019-04-23T19:49:45.341Z,53.60
2019-04-23T19:56:39.291Z,53.80
2019-04-23T20:07:06.105Z,54.60
2019-04-23T20:10:03.982Z,54.60
2019-04-23T20:13:50.866Z,54.60
2019-04-23T20:17:23.376Z,54.90
2019-04-23T20:20:33.550Z,55.10
2019-04-23T20:24:21.398Z,55.40
2019-04-23T20:31:20.792Z,56.10
2019-04-23T20:38:22.167Z,56.70
2019-04-23T20:41:28.413Z,56.70
2019-04-23T20:44:53.540Z,57.00
2019-04-23T20:48:20.389Z,57.50
2019-04-23T20:51:41.332Z,57.50
2019-04-23T20:58:47.661Z,58.60
2019-04-23T21:02:05.693Z,59.10
2019-04-23T21:12:22.902Z,59.70
2019-04-23T21:19:07.772Z,60.40
2019-04-23T21:22:41.599Z,61.10
2019-04-23T21:25:54.086Z,61.60
2019-04-23T21:29:26.281Z,62.10
2019-04-23T21:33:15.764Z,62.80
2019-04-23T21:36:25.217Z,63.20
2019-04-23T21:40:19.645Z,63.80
2019-04-23T21:43:31.978Z,64.80
2019-04-23T21:46:51.091Z,66.30
2019-04-23T21:50:19.183Z,67.50
2019-04-23T21:53:42.187Z,68.20
2019-04-23T21:57:00.586Z,69.60
2019-04-23T22:00:39.176Z,70.10
2019-04-23T22:04:11.620Z,69.80
2019-04-23T22:07:30.734Z,69.90
2019-04-23T22:11:00.622Z,70.20
2019-04-23T22:17:37.588Z,71.70
2019-04-23T22:21:14.428Z,72.80
2019-04-23T22:24:25.544Z,73.40
2019-04-23T22:31:29.549Z,75.10
2019-04-23T22:34:55.913Z,76.00
2019-04-23T22:38:22.701Z,76.80
2019-04-23T22:41:59.461Z,77.50
2019-04-23T22:45:26.837Z,78.30
2019-04-23T22:48:34.988Z,78.20
2019-04-23T22:52:04.078Z,78.30
2019-04-23T22:55:27.609Z,79.10
2019-04-23T22:59:03.447Z,79.70
2019-04-23T23:02:40.762Z,79.80
2019-04-23T23:09:26.290Z,80.30
2019-04-23T23:13:01.977Z,80.90
2019-04-23T23:23:13.117Z,77.30
2019-04-23T23:26:33.786Z,76.80
2019-04-23T23:30:05.149Z,75.80
2019-04-23T23:33:24.073Z,75.60
2019-04-23T23:36:54.787Z,75.10
2019-04-23T23:43:44.464Z,74.60
2019-04-23T23:47:13.152Z,74.60
2019-04-23T23:50:35.127Z,74.90
2019-04-23T23:54:03.886Z,74.80
